createdAt,value
2018-12-17T00:02:06.627Z,33.33
2018-12-17T00:04:35.013Z,43.00
2018-12-17T00:07:03.043Z,49.00
2018-12-17T00:09:31.101Z,47.30
2018-12-17T00:11:59.555Z,49.67
2018-12-17T00:14:27.984Z,62.43
2018-12-17T00:16:56.378Z,58.08
2018-12-17T00:19:24.753Z,49.55
2018-12-17T00:21:53.116Z,90.65
2018-12-17T00:24:21.424Z,77.00
2018-12-17T00:26:49.806Z,62.27
2018-12-17T00:29:18.273Z,64.95
2018-12-17T00:31:46.582Z,106.75
2018-12-17T00:34:14.696Z,201.62
2018-12-17T00:36:43.016Z,71.00
2018-12-17T00:39:11.399Z,74.12
2018-12-17T00:41:39.866Z,66.35
2018-12-17T00:44:08.183Z,67.65
2018-12-17T00:46:36.626Z,42.85
2018-12-17T00:49:05.066Z,44.95
2018-12-17T00:51:33.537Z,40.88
2018-12-17T00:54:01.985Z,52.20
2018-12-17T00:56:30.281Z,48.28
2018-12-17T00:58:58.624Z,55.73
2018-12-17T01:01:27.014Z,44.65
2018-12-17T01:03:55.132Z,42.40
2018-12-17T01:06:23.490Z,50.17
2018-12-17T01:08:51.654Z,46.42
2018-12-17T01:11:20.003Z,58.90
2018-12-17T01:13:48.415Z,117.22
2018-12-17T01:16:16.743Z,97.80
2018-12-17T01:18:45.112Z,94.25
2018-12-17T01:21:13.496Z,158.95
2018-12-17T01:23:42.029Z,186.80
2018-12-17T01:26:10.584Z,136.97
2018-12-17T01:28:39.238Z,117.97
2018-12-17T01:31:07.626Z,123.13
2018-12-17T01:33:35.921Z,160.90
2018-12-17T01:36:04.253Z,91.00
2018-12-17T01:38:32.608Z,106.83
2018-12-17T01:41:01.015Z,161.77
2018-12-17T01:43:29.308Z,97.02
2018-12-17T01:45:57.738Z,95.92
2018-12-17T01:48:26.101Z,84.45
2018-12-17T01:50:54.424Z,81.28
2018-12-17T01:53:22.661Z,75.85
2018-12-17T01:55:51.094Z,111.75
2018-12-17T01:58:19.424Z,110.83
2018-12-17T02:00:47.769Z,93.55
2018-12-17T02:03:16.146Z,118.50
2018-12-17T02:05:44.528Z,88.72
2018-12-17T02:08:12.652Z,76.95
2018-12-17T02:10:40.760Z,89.55
2018-12-17T02:13:09.190Z,92.50
2018-12-17T02:15:37.528Z,115.55
2018-12-17T02:18:05.911Z,63.60
2018-12-17T02:20:34.250Z,60.15
2018-12-17T02:23:02.670Z,61.53
2018-12-17T02:25:31.094Z,96.12
2018-12-17T02:27:59.411Z,107.20
2018-12-17T02:30:27.760Z,63.80
2018-12-17T02:32:56.121Z,61.98
2018-12-17T02:35:25.165Z,50.95
2018-12-17T02:37:53.651Z,43.40
2018-12-17T02:40:22.005Z,36.95
2018-12-17T02:42:50.468Z,28.30
2018-12-17T02:45:18.852Z,28.47
2018-12-17T02:47:47.164Z,23.57
2018-12-17T02:50:15.498Z,25.57
2018-12-17T02:52:43.880Z,49.38
2018-12-17T02:55:12.284Z,63.75
2018-12-17T02:57:40.615Z,44.65
2018-12-17T03:00:09.569Z,36.58
2018-12-17T03:02:37.941Z,34.10
2018-12-17T03:05:06.717Z,40.38
2018-12-17T03:07:35.090Z,35.80
2018-12-17T03:10:03.142Z,70.25
2018-12-17T03:12:31.603Z,43.92
2018-12-17T03:14:59.904Z,56.23
2018-12-17T03:17:28.335Z,38.33
2018-12-17T03:19:56.762Z,33.08
2018-12-17T03:22:25.171Z,30.52
2018-12-17T03:24:53.561Z,52.03
2018-12-17T03:27:21.870Z,37.17
2018-12-17T03:29:50.277Z,49.80
2018-12-17T03:32:18.628Z,39.53
2018-12-17T03:34:46.700Z,61.28
2018-12-17T03:37:14.962Z,54.65
2018-12-17T03:39:43.191Z,44.77
2018-12-17T03:42:11.601Z,49.77
2018-12-17T03:44:39.984Z,33.13
2018-12-17T03:47:08.464Z,63.85
2018-12-17T03:49:36.864Z,40.30
2018-12-17T03:52:05.285Z,88.17
2018-12-17T03:54:33.664Z,96.82
2018-12-17T03:57:02.003Z,22.93
2018-12-17T03:59:30.384Z,25.62
2018-12-17T04:01:58.711Z,51.60
2018-12-17T04:04:27.202Z,31.77
2018-12-17T04:06:55.441Z,23.92
2018-12-17T04:09:23.645Z,33.25
2018-12-17T04:11:51.828Z,32.78
2018-12-17T04:14:20.443Z,34.38
2018-12-17T04:16:48.922Z,51.77
2018-12-17T04:19:17.434Z,38.70
2018-12-17T04:21:45.938Z,80.20
2018-12-17T04:24:14.435Z,44.18
2018-12-17T04:26:42.912Z,42.45
2018-12-17T04:29:11.494Z,75.30
2018-12-17T04:31:40.126Z,45.52
2018-12-17T04:34:08.601Z,40.67
2018-12-17T04:36:37.066Z,30.30
2018-12-17T04:39:06.761Z,23.55
2018-12-17T04:41:35.286Z,44.93
2018-12-17T04:44:03.820Z,45.60
2018-12-17T04:46:32.406Z,31.30
2018-12-17T04:49:00.974Z,74.92
2018-12-17T04:51:29.717Z,36.60
2018-12-17T04:53:58.228Z,38.15
2018-12-17T04:56:26.716Z,39.95
2018-12-17T04:58:55.166Z,45.52
2018-12-17T05:01:23.672Z,42.25
2018-12-17T05:03:52.186Z,63.73
2018-12-17T05:06:20.709Z,77.67
2018-12-17T05:08:49.135Z,115.35
2018-12-17T05:11:17.342Z,129.68
2018-12-17T05:13:45.690Z,75.90
2018-12-17T05:16:14.236Z,164.43
2018-12-17T05:18:42.773Z,51.92
2018-12-17T05:21:11.208Z,98.12
2018-12-17T05:23:39.652Z,91.42
2018-12-17T05:26:08.020Z,72.37
2018-12-17T05:28:36.346Z,102.20
2018-12-17T05:31:04.733Z,133.40
2018-12-17T05:33:33.289Z,88.10
2018-12-17T05:36:01.947Z,92.70
2018-12-17T05:38:30.602Z,98.45
2018-12-17T05:40:59.027Z,148.28
2018-12-17T05:48:19.805Z,122.45
2018-12-17T05:50:48.465Z,54.58
2018-12-17T05:53:18.613Z,64.95
2018-12-17T05:55:47.611Z,84.65
2018-12-17T06:00:59.727Z,62.83
2018-12-17T06:03:28.072Z,35.50
2018-12-17T06:05:56.554Z,51.05
2018-12-17T06:08:24.939Z,73.60
2018-12-17T06:10:53.289Z,64.65
2018-12-17T06:13:21.401Z,80.28
2018-12-17T06:15:49.419Z,92.72
2018-12-17T06:18:17.463Z,60.67
2018-12-17T06:20:46.490Z,70.37
2018-12-17T06:23:15.082Z,87.75
2018-12-17T06:25:43.443Z,79.53
2018-12-17T06:28:11.771Z,107.87
2018-12-17T06:30:40.159Z,63.83
2018-12-17T06:33:08.515Z,59.93
2018-12-17T06:35:36.931Z,96.65
2018-12-17T06:38:05.313Z,41.45
2018-12-17T06:40:33.706Z,40.73
2018-12-17T06:43:02.114Z,48.68
2018-12-17T06:45:31.657Z,92.47
2018-12-17T06:48:00.045Z,60.88
2018-12-17T06:50:28.484Z,56.58
2018-12-17T06:52:56.875Z,42.25
2018-12-17T06:55:25.197Z,38.15
2018-12-17T06:57:53.917Z,59.30
2018-12-17T07:00:22.289Z,101.38
2018-12-17T07:02:50.650Z,86.97
2018-12-17T07:05:19.130Z,78.67
2018-12-17T07:07:47.634Z,48.98
2018-12-17T07:10:15.863Z,30.05
2018-12-17T07:12:44.266Z,19.25
2018-12-17T07:15:12.698Z,29.00
2018-12-17T07:17:40.773Z,28.27
2018-12-17T07:20:08.892Z,40.35
2018-12-17T07:22:37.241Z,32.38
2018-12-17T07:25:05.825Z,36.48
2018-12-17T07:27:34.160Z,57.73
2018-12-17T07:30:02.617Z,24.70
2018-12-17T07:32:31.015Z,35.78
2018-12-17T07:34:59.599Z,23.95
2018-12-17T07:37:28.179Z,25.35
2018-12-17T07:39:56.585Z,36.35
2018-12-17T07:42:25.081Z,29.20
2018-12-17T07:44:53.513Z,38.13
2018-12-17T07:47:21.994Z,25.10
2018-12-17T07:49:50.495Z,42.27
2018-12-17T07:52:19.000Z,26.68
2018-12-17T07:54:47.535Z,73.92
2018-12-17T07:57:16.041Z,73.87
2018-12-17T07:59:44.586Z,92.92
2018-12-17T08:02:13.112Z,61.25
2018-12-17T08:04:41.621Z,60.12
2018-12-17T08:07:10.115Z,95.57
2018-12-17T08:09:38.724Z,32.30
2018-12-17T08:12:07.266Z,32.40
2018-12-17T08:14:35.786Z,41.90
2018-12-17T08:17:04.460Z,42.17
2018-12-17T08:19:32.640Z,49.45
2018-12-17T08:22:00.837Z,74.25
2018-12-17T08:24:31.175Z,50.30
2018-12-17T08:26:59.787Z,46.05
2018-12-17T08:29:28.313Z,37.78
2018-12-17T08:31:56.494Z,38.02
2018-12-17T08:34:24.976Z,30.00
2018-12-17T08:36:53.537Z,34.90
2018-12-17T08:39:21.994Z,42.90
2018-12-17T08:41:50.554Z,36.35
2018-12-17T08:44:25.691Z,33.90
2018-12-17T08:46:53.835Z,34.23
2018-12-17T08:49:22.346Z,24.75
2018-12-17T08:51:50.787Z,27.95
2018-12-17T08:54:19.300Z,23.62
2018-12-17T08:56:47.889Z,32.30
2018-12-17T08:59:16.301Z,26.60
2018-12-17T09:01:44.902Z,23.90
2018-12-17T09:04:13.348Z,20.80
2018-12-17T09:06:41.815Z,28.42
2018-12-17T09:09:10.234Z,25.88
2018-12-17T09:11:38.688Z,26.65
2018-12-17T09:14:07.237Z,31.85
2018-12-17T09:16:35.766Z,83.30
2018-12-17T09:19:04.004Z,72.65
2018-12-17T09:21:32.125Z,44.40
2018-12-17T09:24:00.356Z,29.45
2018-12-17T09:26:28.816Z,22.52
2018-12-17T09:28:57.283Z,21.20
2018-12-17T09:31:25.774Z,24.92
2018-12-17T09:33:54.252Z,29.50
2018-12-17T09:36:22.743Z,26.60
2018-12-17T09:38:51.249Z,23.20
2018-12-17T09:41:19.772Z,24.87
2018-12-17T09:43:48.296Z,20.33
2018-12-17T09:46:16.739Z,21.53
2018-12-17T09:48:45.162Z,24.00
2018-12-17T09:51:19.426Z,20.97
2018-12-17T09:53:44.337Z,24.90
2018-12-17T09:56:12.854Z,27.30
2018-12-17T09:58:41.353Z,33.57
2018-12-17T10:01:09.824Z,30.50
2018-12-17T10:03:38.351Z,35.90
2018-12-17T10:06:06.857Z,25.30
2018-12-17T10:08:38.332Z,17.83
2018-12-17T10:11:06.945Z,22.30
2018-12-17T10:13:35.508Z,21.20
2018-12-17T10:16:04.043Z,17.23
2018-12-17T10:18:36.819Z,14.67
2018-12-17T10:21:02.904Z,12.50
2018-12-17T10:23:31.059Z,11.20
2018-12-17T10:25:59.202Z,11.10
2018-12-17T10:28:27.712Z,22.60
2018-12-17T10:30:56.213Z,14.13
2018-12-17T10:33:24.490Z,41.13
2018-12-17T10:35:52.916Z,36.33
2018-12-17T10:38:21.387Z,69.70
2018-12-17T10:40:49.692Z,49.83
2018-12-17T10:43:18.095Z,15.53
2018-12-17T10:45:46.518Z,9.67
2018-12-17T10:48:14.928Z,8.43
2018-12-17T10:50:43.362Z,9.43
2018-12-17T10:53:11.609Z,6.80
2018-12-17T10:55:39.888Z,7.23
2018-12-17T10:58:08.264Z,7.10
2018-12-17T11:00:41.885Z,5.47
2018-12-17T11:03:14.685Z,16.10
2018-12-17T11:05:44.930Z,5.77
2018-12-17T11:08:13.332Z,4.73
2018-12-17T11:10:41.729Z,6.73
2018-12-17T11:13:10.221Z,3.90
2018-12-17T11:15:38.563Z,4.07
2018-12-17T11:18:07.007Z,2.90
2018-12-17T11:20:35.426Z,3.20
2018-12-17T11:23:04.765Z,4.40
2018-12-17T11:25:32.869Z,4.40
2018-12-17T11:28:01.284Z,5.30
2018-12-17T11:30:29.633Z,8.77
2018-12-17T11:32:58.046Z,7.63
2018-12-17T11:35:26.454Z,9.67
2018-12-17T11:37:54.867Z,7.00
2018-12-17T11:40:23.247Z,4.83
2018-12-17T11:42:51.523Z,5.57
2018-12-17T11:45:19.878Z,8.77
2018-12-17T11:47:48.276Z,6.90
2018-12-17T11:50:16.580Z,5.03
2018-12-17T11:52:44.982Z,5.33
2018-12-17T11:55:13.312Z,4.17
2018-12-17T11:58:23.502Z,6.33
2018-12-17T12:00:57.107Z,7.73
2018-12-17T12:03:25.539Z,6.67
2018-12-17T12:05:53.737Z,4.23
2018-12-17T12:08:21.932Z,5.23
2018-12-17T12:10:50.239Z,8.97
2018-12-17T12:13:18.259Z,9.47
2018-12-17T12:15:46.613Z,11.90
2018-12-17T12:18:14.959Z,13.77
2018-12-17T12:20:43.392Z,12.93
2018-12-17T12:23:11.787Z,13.50
2018-12-17T12:25:40.134Z,15.83
2018-12-17T12:28:08.390Z,12.67
2018-12-17T12:30:36.772Z,7.20
2018-12-17T12:33:05.267Z,21.13
2018-12-17T12:35:33.561Z,10.57
2018-12-17T12:38:01.878Z,14.53
2018-12-17T12:40:30.278Z,21.73
2018-12-17T12:42:58.629Z,9.40
2018-12-17T12:45:27.072Z,7.97
2018-12-17T12:47:55.424Z,6.20
2018-12-17T12:50:23.660Z,6.77
2018-12-17T12:52:52.049Z,8.50
2018-12-17T12:55:20.388Z,10.10
2018-12-17T12:57:48.771Z,8.63
2018-12-17T13:00:17.179Z,9.40
2018-12-17T13:02:45.580Z,5.73
2018-12-17T13:05:13.875Z,6.80
2018-12-17T13:07:42.341Z,6.60
2018-12-17T13:10:11.226Z,7.27
2018-12-17T13:12:39.724Z,7.17
2018-12-17T13:15:08.539Z,6.83
2018-12-17T13:17:36.562Z,10.00
2018-12-17T13:20:06.681Z,14.63
2018-12-17T13:22:35.006Z,9.90
2018-12-17T13:25:03.945Z,7.03
2018-12-17T13:27:32.280Z,6.70
2018-12-17T13:30:00.647Z,6.10
2018-12-17T13:32:29.056Z,7.80
2018-12-17T13:34:57.560Z,8.53
2018-12-17T13:37:25.957Z,7.43
2018-12-17T13:39:54.394Z,10.03
2018-12-17T13:42:24.316Z,11.47
2018-12-17T13:44:52.994Z,9.33
2018-12-17T13:47:21.424Z,51.57
2018-12-17T13:49:49.773Z,60.83
2018-12-17T13:52:23.450Z,28.00
2018-12-17T13:54:51.800Z,17.53
2018-12-17T13:57:20.139Z,14.53
2018-12-17T13:59:48.552Z,15.07
2018-12-17T14:02:16.914Z,14.90
2018-12-17T14:04:45.331Z,16.87
2018-12-17T14:07:13.818Z,34.00
2018-12-17T14:09:47.535Z,18.37
2018-12-17T14:12:15.901Z,14.27
2018-12-17T14:14:44.135Z,20.33
2018-12-17T14:17:18.004Z,18.50
2018-12-17T14:19:50.632Z,57.03
2018-12-17T14:22:19.035Z,30.03
2018-12-17T14:24:47.359Z,10.83
2018-12-17T14:27:15.578Z,8.10
2018-12-17T14:29:43.916Z,11.53
2018-12-17T14:32:12.305Z,10.80
2018-12-17T14:34:40.721Z,17.30
2018-12-17T14:37:09.184Z,6.50
2018-12-17T14:39:37.657Z,6.70
2018-12-17T14:42:06.037Z,7.13
2018-12-17T14:44:34.936Z,11.40
2018-12-17T14:47:03.634Z,9.73
2018-12-17T14:49:32.100Z,12.90
2018-12-17T14:52:00.524Z,11.53
2018-12-17T14:54:28.931Z,15.73
2018-12-17T14:56:57.450Z,9.13
2018-12-17T14:59:25.832Z,13.00
2018-12-17T15:01:54.319Z,120.00
2018-12-17T15:04:22.734Z,38.57
2018-12-17T15:06:51.052Z,20.80
2018-12-17T15:09:19.546Z,20.87
2018-12-17T15:11:47.889Z,14.97
2018-12-17T15:14:15.982Z,12.87
2018-12-17T15:16:44.353Z,8.83
2018-12-17T15:19:13.919Z,19.57
2018-12-17T15:21:42.494Z,375.67
2018-12-17T15:24:10.877Z,169.70
2018-12-17T15:26:39.168Z,173.50
2018-12-17T15:29:07.603Z,87.37
2018-12-17T15:31:42.830Z,21.63
2018-12-17T15:34:06.479Z,12.93
2018-12-17T15:36:35.042Z,10.57
2018-12-17T15:39:04.351Z,11.50
2018-12-17T15:41:32.848Z,9.03
2018-12-17T15:44:01.222Z,21.90
2018-12-17T15:46:29.698Z,20.83
2018-12-17T15:48:58.035Z,17.77
2018-12-17T15:51:26.519Z,16.10
2018-12-17T15:53:55.005Z,28.27
2018-12-17T15:56:23.424Z,15.33
2018-12-17T15:58:51.924Z,10.90
2018-12-17T16:01:20.564Z,7.87
2018-12-17T16:03:49.035Z,15.70
2018-12-17T16:06:17.478Z,7.47
2018-12-17T16:08:46.014Z,18.53
2018-12-17T16:11:14.410Z,18.67
2018-12-17T16:13:42.758Z,16.90
2018-12-17T16:16:10.945Z,28.13
2018-12-17T16:18:39.114Z,35.37
2018-12-17T16:21:07.477Z,35.53
2018-12-17T16:23:35.651Z,21.93
2018-12-17T16:26:03.912Z,23.73
2018-12-17T16:28:32.358Z,15.20
2018-12-17T16:31:00.783Z,26.03
2018-12-17T16:33:30.025Z,23.17
2018-12-17T16:35:58.728Z,31.43
2018-12-17T16:38:27.207Z,42.83
2018-12-17T16:40:55.661Z,37.53
2018-12-17T16:43:24.202Z,27.27
2018-12-17T16:45:52.612Z,20.77
2018-12-17T16:48:20.894Z,32.77
2018-12-17T16:50:49.319Z,25.83
2018-12-17T16:53:17.842Z,23.00
2018-12-17T16:55:46.140Z,22.20
2018-12-17T16:58:14.444Z,22.83
2018-12-17T17:00:42.877Z,41.50
2018-12-17T17:03:11.291Z,43.50
2018-12-17T17:05:39.833Z,47.50
2018-12-17T17:08:08.318Z,50.60
2018-12-17T17:10:36.767Z,56.27
2018-12-17T17:13:05.145Z,48.10
2018-12-17T17:15:33.539Z,35.13
2018-12-17T17:18:01.659Z,39.67
2018-12-17T17:20:30.474Z,41.13
2018-12-17T17:22:58.781Z,92.77
2018-12-17T17:25:27.257Z,94.20
2018-12-17T17:27:56.801Z,90.60
2018-12-17T17:30:25.908Z,39.97
2018-12-17T17:32:54.193Z,21.70
2018-12-17T17:35:22.563Z,13.70
2018-12-17T17:37:50.913Z,11.17
2018-12-17T17:40:19.157Z,14.77
2018-12-17T17:42:47.429Z,16.80
2018-12-17T17:45:15.694Z,15.70
2018-12-17T17:47:43.929Z,21.87
2018-12-17T17:50:12.176Z,37.50
2018-12-17T17:52:40.654Z,27.10
2018-12-17T17:55:08.941Z,23.23
2018-12-17T17:57:37.226Z,24.77
2018-12-17T18:00:05.573Z,20.07
2018-12-17T18:02:33.826Z,11.40
2018-12-17T18:05:02.113Z,13.90
2018-12-17T18:07:30.327Z,10.67
2018-12-17T18:09:58.568Z,8.10
2018-12-17T18:12:26.888Z,9.63
2018-12-17T18:14:55.149Z,13.57
2018-12-17T18:17:23.389Z,8.37
2018-12-17T18:19:51.446Z,11.20
2018-12-17T18:22:19.746Z,14.53
2018-12-17T18:24:47.722Z,24.50
2018-12-17T18:27:15.929Z,19.23
2018-12-17T18:29:44.206Z,15.90
2018-12-17T18:32:12.414Z,11.10
2018-12-17T18:34:40.719Z,15.20
2018-12-17T18:37:09.020Z,13.33
2018-12-17T18:39:37.284Z,9.63
2018-12-17T18:42:05.500Z,4.80
2018-12-17T18:44:33.784Z,12.37
2018-12-17T18:47:02.009Z,25.67
2018-12-17T18:49:30.335Z,20.87
2018-12-17T18:51:58.548Z,6.27
2018-12-17T18:54:26.893Z,7.80
2018-12-17T18:56:55.113Z,11.00
2018-12-17T18:59:23.347Z,11.17
2018-12-17T19:01:51.694Z,11.20
2018-12-17T19:04:19.941Z,16.33
2018-12-17T19:06:48.196Z,19.80
2018-12-17T19:09:16.469Z,6.20
2018-12-17T19:11:44.672Z,6.67
2018-12-17T19:14:12.872Z,5.40
2018-12-17T19:16:41.205Z,10.13
2018-12-17T19:19:09.403Z,15.30
2018-12-17T19:21:37.653Z,8.80
2018-12-17T19:24:05.671Z,6.50
2018-12-17T19:26:33.629Z,3.80
2018-12-17T19:29:01.876Z,3.97
2018-12-17T19:31:34.547Z,6.10
2018-12-17T19:34:00.461Z,19.10
2018-12-17T19:36:28.802Z,38.53
2018-12-17T19:38:57.177Z,35.00
2018-12-17T19:41:25.458Z,36.40
2018-12-17T19:43:53.688Z,41.60
2018-12-17T19:46:21.913Z,38.80
2018-12-17T19:48:50.136Z,28.60
2018-12-17T19:51:18.352Z,28.77
2018-12-17T19:53:46.609Z,35.07
2018-12-17T19:56:14.829Z,35.43
2018-12-17T19:58:43.136Z,51.83
2018-12-17T20:01:11.388Z,46.40
2018-12-17T20:03:39.601Z,52.53
2018-12-17T20:06:07.848Z,37.13
2018-12-17T20:08:36.108Z,48.53
2018-12-17T20:11:04.443Z,42.73
2018-12-17T20:13:32.669Z,42.73
2018-12-17T20:16:00.886Z,40.63
2018-12-17T20:18:29.121Z,36.20
2018-12-17T20:20:57.354Z,34.37
2018-12-17T20:23:25.615Z,27.03
2018-12-17T20:25:53.622Z,27.57
2018-12-17T20:28:21.612Z,31.57
2018-12-17T20:30:49.616Z,23.03
2018-12-17T20:33:17.848Z,29.97
2018-12-17T20:35:46.204Z,31.30
2018-12-17T20:38:14.503Z,28.10
2018-12-17T20:40:42.756Z,37.47
2018-12-17T20:43:11.030Z,32.53
2018-12-17T20:45:39.227Z,23.60
2018-12-17T20:48:07.520Z,34.97
2018-12-17T20:50:35.854Z,29.97
2018-12-17T20:53:04.096Z,31.43
2018-12-17T20:55:32.353Z,37.33
2018-12-17T20:58:00.613Z,41.73
2018-12-17T21:00:28.897Z,37.63
2018-12-17T21:03:00.271Z,34.50
2018-12-17T21:05:27.409Z,43.80
2018-12-17T21:07:55.616Z,44.90
2018-12-17T21:10:23.829Z,39.13
2018-12-17T21:12:52.060Z,30.47
2018-12-17T21:15:20.295Z,26.83
2018-12-17T21:17:48.576Z,19.27
2018-12-17T21:20:16.837Z,16.63
2018-12-17T21:22:45.285Z,17.60
2018-12-17T21:25:13.499Z,23.43
2018-12-17T21:27:41.729Z,22.00
2018-12-17T21:30:09.813Z,23.70
2018-12-17T21:32:38.157Z,21.93
2018-12-17T21:35:06.769Z,29.87
2018-12-17T21:37:35.028Z,31.90
2018-12-17T21:40:03.348Z,33.57
2018-12-17T21:42:31.649Z,30.83
2018-12-17T21:44:59.985Z,37.77
2018-12-17T21:47:28.213Z,42.40
2018-12-17T21:49:56.464Z,28.67
2018-12-17T21:52:27.773Z,25.10
2018-12-17T21:58:27.164Z,19.40
2018-12-17T22:00:55.378Z,22.47
2018-12-17T22:03:23.677Z,23.77
2018-12-17T22:05:51.886Z,23.43
2018-12-17T22:08:20.119Z,23.57
2018-12-17T22:10:48.352Z,18.50
2018-12-17T22:13:16.557Z,17.77
2018-12-17T22:15:44.872Z,18.97
2018-12-17T22:18:13.084Z,15.20
2018-12-17T22:20:41.326Z,18.00
2018-12-17T22:23:09.532Z,16.20
2018-12-17T22:25:37.803Z,19.37
2018-12-17T22:28:06.008Z,15.28
2018-12-17T22:30:34.224Z,26.53
2018-12-17T22:33:02.475Z,22.90
2018-12-17T22:35:30.876Z,15.58
2018-12-17T22:37:59.232Z,16.93
2018-12-17T22:40:27.510Z,15.97
2018-12-17T22:42:55.813Z,25.52
2018-12-17T22:45:23.772Z,16.20
2018-12-17T22:47:51.998Z,41.53
2018-12-17T22:50:20.220Z,32.20
2018-12-17T22:52:48.445Z,23.00
2018-12-17T22:55:16.670Z,18.00
2018-12-17T22:57:44.972Z,24.17
2018-12-17T23:00:13.199Z,16.43
2018-12-17T23:02:41.412Z,16.93
2018-12-17T23:05:09.651Z,22.03
2018-12-17T23:07:37.917Z,18.10
2018-12-17T23:10:17.643Z,19.00
2018-12-17T23:12:57.288Z,19.27
2018-12-17T23:15:36.953Z,22.60
2018-12-17T23:18:04.297Z,20.83
2018-12-17T23:20:32.577Z,18.50
2018-12-17T23:23:00.810Z,14.33
2018-12-17T23:25:29.008Z,15.90
2018-12-17T23:27:57.217Z,14.57
2018-12-17T23:30:25.444Z,12.50
2018-12-17T23:32:53.706Z,7.90
2018-12-17T23:35:21.931Z,9.77
2018-12-17T23:37:50.227Z,13.30
2018-12-17T23:40:18.451Z,8.50
2018-12-17T23:42:46.652Z,6.17
2018-12-17T23:45:16.448Z,6.70
2018-12-17T23:47:44.699Z,6.63
2018-12-17T23:50:12.908Z,6.57
2018-12-17T23:52:41.123Z,10.57
2018-12-17T23:55:09.341Z,6.30
2018-12-17T23:57:37.586Z,6.47
